Miami, FL

8:08 AM EDT on July 01, 2015 (GMT -0400)
JA Richmond West | | Change Station
CLOSE
Current Station
Personal Weather Station
Location: Miami, FL
Elevation: 7 ft
Nearby Weather Stations

Elev 7 ft 25.61 °N, 80.43 °W | Updated 17 seconds ago

Clear
Clear
85.8 °F
Feels Like 93 °F
N
2.7
Wind Variable Wind from ENE
Gusts 3.7 mph

Today
High -- | Low -- °F
--% Chance of Precip.
Yesterday
High -- | Low -- °F
Precip. -- in
6:34 AM 8:16 PM
Full, 100% visible
Pressure 30.14 in
Visibility 10.0 miles
Clouds Clear
Heat Index 93 °F
Dew Point 73 °F
Humidity 65%
Rainfall 0.00 in
Snow Depth Not available.
UV 1 out of 12
Pollen 3.70 out of 12
Air Quality Not available.
Flu Activity Not available.
METAR KTMB 011153Z 09005KT 10SM CLR 28/23 A3014 RMK AO2 SLP204 T02780228 10278 20233 53012

More Conditions Fewer Conditions

Pressure 30.14 in
Visibility 10.0 miles
Clouds Clear
Heat Index 93 °F
Dew Point 73 °F
Humidity 65%
Rainfall 0.00 in
Snow Depth Not available.
UV 1 out of 12
Pollen 3.70 out of 12
Air Quality Not available.
Flu Activity Not available.
METAR KTMB 011153Z 09005KT 10SM CLR 28/23 A3014 RMK AO2 SLP204 T02780228 10278 20233 53012

More Conditions Fewer Conditions

10-Day Weather Forecast

×

Almanac

Astronomy

Jul. 01, 2015 Rise Set
Actual Time
Civil Twilight
Nautical Twilight
Astronomical Twilight
Moon
Length of Visible Light
Length of Day
Tomorrow will be .
, % of the Moon is Illuminated

Today's Extremes

State Highs State Lows

Community

WunderPhotos

Upload Photos

1,834,181 photos uploaded!

WunderBlogs® & News

Nearby

Air Quality

  Air Quality AQ Index Pollutant
Not available.

Snow Depth

Station Depth Elevation

Earthquake Activity

City Distance Mag. Time & Date
Minimum magnitude displayed is 2.5.

Coastal Water Temperatures

Place Temperature

Stations

Nearby Weather Stations

Station Location Temp. Windchill Dew Point Humidity Wind Precip. Elev Updated Type